嘉手納 の空港の天気 - METARとTAF

嘉手納基地 ( RODN / DNA ) - 沖縄県沖縄市
飛行場実況気象(Metar)
観測時間06/25 21:56 JST (06/25 12:56 UTC)
風向・風速南東 3m/s
視程10km以上
天気現象
なし
気温27.2℃
湿度86%
気圧1014.3hPa
METARRODN 251256Z AUTO 13006KT 10SM CLR 27/25 A2994 RMK AO2 SLP143 T02720246
過去の天気等 Google飛行場航空写真 Wunderground天気予報

過去48時間のMETAR

飛行場予報(TAF)
発表時間: 6/25 17:14 JST (6/25 08:14 UTC)
予報対象時間: 25日17時 JST ~ 26日23時 JST
風向・風速南東 5m/s
視程10km以上
全天の8割程度の雲 雲底高度 520m
25日17時 JST ~ 25日18時 JST に一時的に
視程6000m
天気現象弱い雷雨
全天の8割程度の積乱雲 雲底高度 760m
25日18時 JST ~ 25日19時 JST に一時的に
天気現象周辺で雷
全天の8割程度の積乱雲 雲底高度 910m
25日18時 JST ~ 25日19時 JST に徐々に
風向・風速南南東 5m/s
視程10km以上
全天の4割程度の雲 雲底高度 910m
26日3時 JST ~ 26日4時 JST に徐々に
風向・風速南東 5m/s
視程10km以上
少しの雲 雲底高度 4570m
TAF COR RODN 250814Z 2508/2614 14009KT 9999 BKN017 QNH2989INS
TEMPO 2508/2509 6000 -TSRA BKN025CB
TEMPO 2509/2510 VCTS BKN030CB
BECMG 2509/2510 16009KT 9999 SCT030 QNH2986INS
BECMG 2518/2519 13009KT 9999 FEW150 QNH2985INS WND 15010G15KT AFT 2600 TX32/2606Z TN26/2519Z
日本の空港のMETAR・TAFへのリンク

RJTT 東京国際空港
RJAA 新東京国際空港
RJBB 関西国際空港
RJOO 大阪空港
RJGG 中部国際空港
RJCC 新千歳空港
RJFF 福岡空港
ROAH 那覇空港


RJEC 旭川空港
RJCH 函館空港
RJCK 釧路空港
RJCM 女満別空港
RJCB 帯広空港
RJSA 青森空港
RJSS 仙台空港
RJSK 秋田空港
RJSF 福島空港
RJAH 茨城空港
RJSN 新潟空港
RJNT 富山空港
RJNK 小松飛行場
RJNS 静岡空港
RJOH 美保飛行場
RJOC 出雲空港
RJOB 岡山空港
RJOA 広島空港
RJOI 岩国飛行場
RJOT 高松空港
RJOM 松山空港
RJOK 高知空港
RJFR 北九州空港
RJFT 熊本空港
RJFU 長崎空港
RJFS 佐賀空港
RJFO 大分空港
RJFM 宮崎空港
RJFK 鹿児島空港
ROIG 石垣島空港
RJTY 横田飛行場
ROTM 普天間飛行場
RODN 嘉手納飛行場